Time;durP1;ratioP1;P1;durP2;ratioP2;P2;SDS_P1;SDS_P2;PMS_P1;PMS_P2;Temp;Humidity;BMP_temperature;BMP_pressure;BME280_temperature;BME280_humidity;BME280_pressure;Samples;Min_cycle;Max_cycle;Signal;HPM_P1;HPM_P2
2021/03/23 00:00:32;;;;;;;;;;;;;;;20.79;47.04;101742.81;2093288;28;1586;-33
2021/03/23 00:01:32;;;;;;;;;;;;;;;20.78;47.07;101741.97;2093130;28;2291;-36
2021/03/23 00:02:35;;;;;;;;;;;;;;;20.79;46.90;101743.66;2097446;28;1098;-35
2021/03/23 00:03:36;;;;;;;;;;;;;;;20.79;47.10;101746.50;2090737;28;1707;-36
2021/03/23 00:04:37;;;;;;;;;;;;;;;20.79;47.08;101737.13;2098113;28;1751;-32
2021/03/23 00:05:38;;;;;;;;;;;;;;;20.78;46.95;101741.97;2098719;28;1172;-34
2021/03/23 00:06:39;;;;;;;;;;;;;;;20.79;47.09;101739.97;2094324;28;2155;-35
2021/03/23 00:07:40;;;;;;;;;;;;;;;20.78;47.08;101732.59;2091111;28;1488;-30
2021/03/23 00:08:44;;;;;;;;;;;;;;;20.79;46.98;101745.66;2097994;28;1913;-38
2021/03/23 00:09:44;;;;;;;;;;;;;;;20.78;47.18;101736.28;2090732;28;3912;-32
2021/03/23 00:10:45;;;;;;;;;;;;;;;20.78;47.11;101738.28;2097344;28;1532;-31
2021/03/23 00:11:46;;;;;;;;;;;;;;;20.77;47.16;101740.28;2092280;28;1221;-34
2021/03/23 00:12:47;;;;;;;;;;;;;;;20.78;47.21;101736.28;2095743;28;2095;-37
2021/03/23 00:13:47;;;;;;;;;;;;;;;20.78;47.29;101738.28;2095756;28;1756;-32
2021/03/23 00:14:48;;;;;;;;;;;;;;;20.78;47.20;101738.28;2094206;28;3910;-35
2021/03/23 00:15:49;;;;;;;;;;;;;;;20.78;47.14;101739.13;2095335;28;2082;-36
2021/03/23 00:16:50;;;;;;;;;;;;;;;20.77;47.31;101737.44;2097771;28;1964;-36
2021/03/23 00:17:51;;;;;;;;;;;;;;;20.78;47.16;101736.28;2094367;28;1628;-33
2021/03/23 00:18:52;;;;;;;;;;;;;;;20.77;47.25;101740.28;2095477;28;3675;-35
2021/03/23 00:19:52;;;;;;;;;;;;;;;20.78;47.32;101747.66;2092972;28;2496;-34
2021/03/23 00:20:53;;;;;;;;;;;;;;;20.77;47.37;101748.81;2094991;28;1671;-34
2021/03/23 00:21:54;;;;;;;;;;;;;;;20.77;47.25;101743.13;2098161;28;1535;-33
2021/03/23 00:22:55;;;;;;;;;;;;;;;20.77;47.39;101736.63;2092140;28;2143;-35
2021/03/23 00:23:55;;;;;;;;;;;;;;;20.76;47.31;101741.47;2095297;28;1374;-37
2021/03/23 00:24:56;;;;;;;;;;;;;;;20.77;47.37;101745.97;2096136;28;1733;-38
2021/03/23 00:25:57;;;;;;;;;;;;;;;20.77;47.26;101742.31;2096153;28;1679;-34
2021/03/23 00:26:57;;;;;;;;;;;;;;;20.77;47.40;101748.00;2096684;28;1201;-36
2021/03/23 00:27:58;;;;;;;;;;;;;;;20.76;47.38;101747.16;2093252;28;2059;-35
2021/03/23 00:28:59;;;;;;;;;;;;;;;20.76;47.34;101740.63;2093454;28;1898;-36
2021/03/23 00:30:00;;;;;;;;;;;;;;;20.77;47.47;101745.16;2096143;28;1536;-33
2021/03/23 00:31:01;;;;;;;;;;;;;;;20.75;47.38;101745.47;2096982;28;1423;-35
2021/03/23 00:32:02;;;;;;;;;;;;;;;20.75;47.33;101748.31;2095284;28;1174;-33
2021/03/23 00:33:02;;;;;;;;;;;;;;;20.75;47.24;101739.78;2096472;28;2106;-33
2021/03/23 00:34:03;;;;;;;;;;;;;;;20.75;47.45;101745.47;2095594;28;1715;-34
2021/03/23 00:35:04;;;;;;;;;;;;;;;20.75;47.41;101744.63;2096537;28;2176;-35
2021/03/23 00:36:05;;;;;;;;;;;;;;;20.75;47.39;101739.78;2096829;28;1572;-34
2021/03/23 00:37:06;;;;;;;;;;;;;;;20.74;47.29;101743.81;2096326;28;4297;-38
2021/03/23 00:38:06;;;;;;;;;;;;;;;20.73;47.38;101744.97;2094946;28;2310;-35
2021/03/23 00:39:07;;;;;;;;;;;;;;;20.74;47.21;101735.28;2098157;28;1094;-39
2021/03/23 00:40:08;;;;;;;;;;;;;;;20.75;47.34;101741.78;2096525;28;1649;-39
2021/03/23 00:41:09;;;;;;;;;;;;;;;20.74;47.40;101734.44;2092186;28;1485;-35
2021/03/23 00:42:10;;;;;;;;;;;;;;;20.73;47.35;101730.75;2094452;28;2038;-35
2021/03/23 00:43:10;;;;;;;;;;;;;;;20.74;47.38;101740.97;2094696;28;2174;-41
2021/03/23 00:44:11;;;;;;;;;;;;;;;20.74;47.29;101738.13;2095942;28;1134;-37
2021/03/23 00:45:12;;;;;;;;;;;;;;;20.73;47.17;101730.75;2098375;28;1201;-33
2021/03/23 00:46:12;;;;;;;;;;;;;;;20.73;47.26;101736.44;2097317;28;1613;-37
2021/03/23 00:47:14;;;;;;;;;;;;;;;20.73;47.34;101730.75;2099908;28;1389;-35
2021/03/23 00:48:16;;;;;;;;;;;;;;;20.74;47.21;101728.75;2095617;28;2228;-37
2021/03/23 00:49:16;;;;;;;;;;;;;;;20.73;47.37;101727.06;2099170;28;1973;-36
2021/03/23 00:50:17;;;;;;;;;;;;;;;20.73;47.23;101729.91;2099902;28;1421;-34
2021/03/23 00:51:18;;;;;;;;;;;;;;;20.73;47.38;101725.06;2099217;28;1607;-38
2021/03/23 00:52:19;;;;;;;;;;;;;;;20.73;47.23;101730.75;2096983;28;1469;-38
2021/03/23 00:53:19;;;;;;;;;;;;;;;20.72;47.26;101728.22;2095058;28;2254;-32
2021/03/23 00:54:20;;;;;;;;;;;;;;;20.72;47.30;101729.06;2097133;28;2180;-33
2021/03/23 00:55:21;;;;;;;;;;;;;;;20.73;47.29;101724.22;2093659;28;2562;-34
2021/03/23 00:56:21;;;;;;;;;;;;;;;20.73;47.27;101732.75;2094706;28;1302;-33
2021/03/23 00:57:22;;;;;;;;;;;;;;;20.72;47.28;101723.38;2098537;28;1610;-35
2021/03/23 00:58:23;;;;;;;;;;;;;;;20.72;47.41;101731.91;2097271;28;2266;-38
2021/03/23 00:59:24;;;;;;;;;;;;;;;20.71;47.36;101738.78;2095008;28;1539;-35
2021/03/23 01:00:24;;;;;;;;;;;;;;;20.72;47.15;101731.91;2097191;28;1313;-33
2021/03/23 01:01:25;;;;;;;;;;;;;;;20.72;47.36;101731.91;2099829;28;1354;-38
2021/03/23 01:02:28;;;;;;;;;;;;;;;20.72;47.26;101729.06;2096824;28;1586;-35
2021/03/23 01:03:29;;;;;;;;;;;;;;;20.71;47.42;101733.09;2092767;28;2369;-36
2021/03/23 01:04:30;;;;;;;;;;;;;;;20.71;47.21;101730.25;2094763;28;1225;-37
2021/03/23 01:05:46;;;;;;;;;;;;;;;20.71;47.34;101733.09;2096637;28;1600;-37
2021/03/23 01:06:47;;;;;;;;;;;;;;;20.72;47.45;101733.91;2097128;28;2196;-37
2021/03/23 01:07:48;;;;;;;;;;;;;;;20.72;47.33;101733.91;2096014;28;1207;-33
2021/03/23 01:08:49;;;;;;;;;;;;;;;20.71;47.23;101738.78;2098194;28;1902;-35
2021/03/23 01:09:49;;;;;;;;;;;;;;;20.71;47.35;101737.94;2095828;28;3964;-32
2021/03/23 01:10:50;;;;;;;;;;;;;;;20.71;47.40;101738.78;2096695;28;1475;-37
2021/03/23 01:11:51;;;;;;;;;;;;;;;20.71;47.56;101740.78;2096716;28;2193;-35
2021/03/23 01:12:52;;;;;;;;;;;;;;;20.71;47.43;101737.94;2096561;28;1867;-38
2021/03/23 01:13:52;;;;;;;;;;;;;;;20.72;47.29;101739.59;2096095;28;2398;-37
2021/03/23 01:14:53;;;;;;;;;;;;;;;20.70;47.28;101734.25;2096448;28;2186;-35
2021/03/23 01:15:54;;;;;;;;;;;;;;;20.70;47.34;101737.09;2095899;28;1470;-36
2021/03/23 01:16:55;;;;;;;;;;;;;;;20.71;47.32;101737.94;2098793;28;1543;-36
2021/03/23 01:17:56;;;;;;;;;;;;;;;20.70;47.26;101737.09;2098419;28;1378;-32
2021/03/23 01:18:57;;;;;;;;;;;;;;;20.69;47.40;101741.94;2096036;28;2129;-37
2021/03/23 01:19:58;;;;;;;;;;;;;;;20.71;47.43;101732.25;2099594;28;1295;-37
2021/03/23 01:20:58;;;;;;;;;;;;;;;20.71;47.49;101732.25;2099649;28;1364;-36
2021/03/23 01:21:59;;;;;;;;;;;;;;;20.70;47.40;101739.91;2098321;28;1206;-35
2021/03/23 01:23:08;;;;;;;;;;;;;;;20.70;47.30;101734.25;2098127;28;1392;-33
2021/03/23 01:24:08;;;;;;;;;;;;;;;20.71;47.46;101735.09;2094931;28;2177;-36
2021/03/23 01:25:09;;;;;;;;;;;;;;;20.70;47.46;101739.91;2094458;28;1249;-34
2021/03/23 01:26:10;;;;;;;;;;;;;;;20.69;47.38;101738.25;2096110;28;1296;-40
2021/03/23 01:27:11;;;;;;;;;;;;;;;20.70;47.37;101742.78;2096855;28;1513;-32
2021/03/23 01:28:11;;;;;;;;;;;;;;;20.70;47.36;101737.09;2096434;28;1343;-32
2021/03/23 01:29:12;;;;;;;;;;;;;;;20.70;47.48;101737.09;2095942;28;2195;-35
2021/03/23 01:30:13;;;;;;;;;;;;;;;20.70;47.38;101742.78;2097625;28;1723;-36
2021/03/23 01:31:14;;;;;;;;;;;;;;;20.69;47.52;101736.25;2097726;28;1265;-35
2021/03/23 01:32:14;;;;;;;;;;;;;;;20.69;47.38;101741.94;2092740;28;1200;-37
2021/03/23 01:33:18;;;;;;;;;;;;;;;20.69;47.51;101752.47;2099411;28;1855;-37
2021/03/23 01:34:18;;;;;;;;;;;;;;;20.69;47.50;101743.94;2094478;28;2284;-35
2021/03/23 01:35:19;;;;;;;;;;;;;;;20.69;47.51;101741.94;2096389;28;1214;-35
2021/03/23 01:36:20;;;;;;;;;;;;;;;20.68;47.52;101731.75;2096444;28;3786;-36
2021/03/23 01:37:21;;;;;;;;;;;;;;;20.70;47.58;101742.78;2098313;28;1493;-34
2021/03/23 01:38:21;;;;;;;;;;;;;;;20.68;47.54;101734.59;2095908;28;1933;-41
2021/03/23 01:39:22;;;;;;;;;;;;;;;20.69;47.57;101741.09;2097092;28;2569;-37
2021/03/23 01:40:23;;;;;;;;;;;;;;;20.69;47.50;101741.09;2095768;28;1413;-34
2021/03/23 01:41:24;;;;;;;;;;;;;;;20.69;47.52;101744.78;2096159;28;2068;-34
2021/03/23 01:42:25;;;;;;;;;;;;;;;20.69;47.48;101738.25;2096074;28;2316;-34
2021/03/23 01:43:26;;;;;;;;;;;;;;;20.69;47.49;101743.94;2098081;28;1205;-34
2021/03/23 01:44:27;;;;;;;;;;;;;;;20.68;47.64;101742.28;2096420;28;1182;-34
2021/03/23 01:45:27;;;;;;;;;;;;;;;20.69;47.61;101743.94;2097516;28;1788;-36
2021/03/23 01:46:28;;;;;;;;;;;;;;;20.68;47.65;101743.13;2099310;28;1530;-36
2021/03/23 01:47:29;;;;;;;;;;;;;;;20.68;47.64;101739.44;2093544;28;2129;-35
2021/03/23 01:48:30;;;;;;;;;;;;;;;20.68;47.63;101742.28;2093986;28;1969;-34
2021/03/23 01:49:31;;;;;;;;;;;;;;;20.67;47.72;101741.41;2098561;28;1385;-37
2021/03/23 01:50:32;;;;;;;;;;;;;;;20.68;47.72;101740.28;2096635;28;1643;-36
2021/03/23 01:51:33;;;;;;;;;;;;;;;20.68;47.67;101739.44;2097245;28;1435;-32
2021/03/23 01:52:34;;;;;;;;;;;;;;;20.69;47.79;101747.63;2093724;28;2234;-34
2021/03/23 01:53:35;;;;;;;;;;;;;;;20.69;47.84;101746.78;2093756;28;1640;-37
2021/03/23 01:54:36;;;;;;;;;;;;;;;20.68;47.71;101743.13;2094756;28;1538;-34
2021/03/23 01:55:36;;;;;;;;;;;;;;;20.68;47.80;101743.13;2095380;28;1214;-36
2021/03/23 01:56:37;;;;;;;;;;;;;;;20.69;47.80;101741.09;2094737;28;2466;-32
2021/03/23 01:57:38;;;;;;;;;;;;;;;20.68;47.74;101743.13;2099336;28;1658;-37
2021/03/23 01:58:39;;;;;;;;;;;;;;;20.69;47.66;101746.78;2095143;28;2287;-36
2021/03/23 01:59:39;;;;;;;;;;;;;;;20.68;47.89;101740.28;2095336;28;2188;-34
2021/03/23 02:00:40;;;;;;;;;;;;;;;20.68;47.85;101745.97;2095235;28;1184;-35
2021/03/23 02:01:41;;;;;;;;;;;;;;;20.69;47.84;101744.78;2097288;28;1527;-35
2021/03/23 02:02:42;;;;;;;;;;;;;;;20.69;47.74;101749.63;2098520;28;1399;-37
2021/03/23 02:03:43;;;;;;;;;;;;;;;20.68;47.93;101743.13;2094990;28;1445;-38
2021/03/23 02:04:44;;;;;;;;;;;;;;;20.69;47.84;101741.09;2095142;28;2283;-35
2021/03/23 02:05:45;;;;;;;;;;;;;;;20.69;47.74;101738.25;2095004;28;1171;-34
2021/03/23 02:06:46;;;;;;;;;;;;;;;20.69;47.97;101741.09;2094857;28;1641;-37
2021/03/23 02:07:47;;;;;;;;;;;;;;;20.68;47.87;101743.13;2094108;28;2124;-36
2021/03/23 02:08:47;;;;;;;;;;;;;;;20.68;47.90;101740.28;2094562;28;1936;-35
2021/03/23 02:09:48;;;;;;;;;;;;;;;20.68;47.99;101740.28;2095241;28;4124;-34
2021/03/23 02:10:49;;;;;;;;;;;;;;;20.68;47.88;101745.13;2098163;28;1501;-37
2021/03/23 02:11:49;;;;;;;;;;;;;;;20.68;47.79;101747.97;2094591;28;1216;-35
2021/03/23 02:12:50;;;;;;;;;;;;;;;20.68;47.95;101739.44;2096466;28;2190;-34
2021/03/23 02:13:51;;;;;;;;;;;;;;;20.68;48.05;101747.97;2099251;28;1212;-40
2021/03/23 02:14:52;;;;;;;;;;;;;;;20.68;47.85;101742.28;2094866;28;1778;-34
2021/03/23 02:15:52;;;;;;;;;;;;;;;20.68;47.89;101750.81;2093182;28;2280;-33
2021/03/23 02:16:53;;;;;;;;;;;;;;;20.69;48.06;101746.78;2099462;28;1189;-35
2021/03/23 02:17:54;;;;;;;;;;;;;;;20.68;48.09;101743.13;2095855;28;2290;-38
2021/03/23 02:19:01;;;;;;;;;;;;;;;20.68;47.93;101743.13;2099718;28;1492;-37
2021/03/23 02:20:02;;;;;;;;;;;;;;;20.68;48.13;101736.59;2094349;28;1884;-36
2021/03/23 02:21:03;;;;;;;;;;;;;;;20.68;48.10;101743.13;2091103;28;2441;-37
2021/03/23 02:22:03;;;;;;;;;;;;;;;20.68;48.06;101740.28;2094418;28;1226;-34
2021/03/23 02:23:04;;;;;;;;;;;;;;;20.68;48.11;101734.59;2097192;28;1599;-34
2021/03/23 02:24:05;;;;;;;;;;;;;;;20.68;47.94;101739.44;2092477;28;1347;-34
2021/03/23 02:25:06;;;;;;;;;;;;;;;20.68;48.06;101742.28;2092017;28;1801;-36
2021/03/23 02:26:06;;;;;;;;;;;;;;;20.68;48.02;101739.44;2093775;28;2561;-35
2021/03/23 02:27:07;;;;;;;;;;;;;;;20.69;48.04;101741.09;2095832;28;1487;-35
2021/03/23 02:28:08;;;;;;;;;;;;;;;20.68;48.10;101743.13;2089127;28;2218;-34
2021/03/23 02:29:08;;;;;;;;;;;;;;;20.67;48.07;101744.25;2095743;28;1913;-38
2021/03/23 02:30:09;;;;;;;;;;;;;;;20.68;47.98;101747.97;2097743;28;1505;-33
2021/03/23 02:31:10;;;;;;;;;;;;;;;20.67;48.07;101741.41;2097178;28;1262;-36
2021/03/23 02:32:11;;;;;;;;;;;;;;;20.67;47.99;101744.25;2092993;28;1570;-33
2021/03/23 02:33:12;;;;;;;;;;;;;;;20.68;48.08;101739.44;2095992;28;2150;-36
2021/03/23 02:34:13;;;;;;;;;;;;;;;20.68;48.07;101745.13;2096153;28;1871;-34
2021/03/23 02:35:14;;;;;;;;;;;;;;;20.67;48.09;101744.25;2098086;28;1212;-33
2021/03/23 02:36:14;;;;;;;;;;;;;;;20.68;48.16;101740.28;2091516;28;3732;-37
2021/03/23 02:37:15;;;;;;;;;;;;;;;20.67;48.09;101741.41;2097888;28;1753;-32
2021/03/23 02:38:16;;;;;;;;;;;;;;;20.67;48.05;101741.41;2097214;28;2276;-35
2021/03/23 02:39:17;;;;;;;;;;;;;;;20.67;48.07;101747.09;2098485;28;1405;-36
2021/03/23 02:40:17;;;;;;;;;;;;;;;20.67;48.15;101749.94;2096204;28;1127;-33
2021/03/23 02:41:18;;;;;;;;;;;;;;;20.67;48.30;101738.56;2098160;28;1184;-35
2021/03/23 02:42:19;;;;;;;;;;;;;;;20.68;48.59;101751.66;2098916;28;1244;-33
2021/03/23 02:43:20;;;;;;;;;;;;;;;20.69;48.49;101744.78;2096459;28;2133;-34
2021/03/23 02:44:20;;;;;;;;;;;;;;;20.70;48.72;101751.31;2097668;28;1656;-38
2021/03/23 02:45:21;;;;;;;;;;;;;;;20.71;48.82;101749.31;2091509;28;1538;-36
2021/03/23 02:46:22;;;;;;;;;;;;;;;20.71;48.74;101755.00;2096445;28;1223;-38
2021/03/23 02:47:23;;;;;;;;;;;;;;;20.69;48.75;101747.63;2098931;28;1187;-35
2021/03/23 02:48:24;;;;;;;;;;;;;;;20.69;48.59;101753.31;2096108;28;2358;-33
2021/03/23 02:49:25;;;;;;;;;;;;;;;20.70;48.68;101754.13;2094752;28;2175;-37
2021/03/23 02:50:25;;;;;;;;;;;;;;;20.68;48.76;101751.66;2099366;28;1503;-36
2021/03/23 02:51:26;;;;;;;;;;;;;;;20.70;48.71;101754.13;2094421;28;1651;-34
2021/03/23 02:52:28;;;;;;;;;;;;;;;20.70;48.61;101748.44;2099036;28;1126;-35
2021/03/23 02:53:29;;;;;;;;;;;;;;;20.69;48.70;101758.16;2091110;28;2216;-33
2021/03/23 02:54:29;;;;;;;;;;;;;;;20.69;48.65;101758.16;2095480;28;1588;-35
2021/03/23 02:55:30;;;;;;;;;;;;;;;20.68;48.62;101751.66;2098755;28;1095;-35
2021/03/23 02:56:31;;;;;;;;;;;;;;;20.68;48.66;101759.34;2092616;28;1443;-35
2021/03/23 02:57:32;;;;;;;;;;;;;;;20.68;48.65;101763.03;2096506;28;1586;-37
2021/03/23 02:58:33;;;;;;;;;;;;;;;20.68;48.61;101756.50;2095962;28;2272;-32
2021/03/23 02:59:34;;;;;;;;;;;;;;;20.68;48.75;101753.66;2093953;28;1695;-35
2021/03/23 03:00:34;;;;;;;;;;;;;;;20.69;48.62;101758.16;2093722;28;2445;-38
2021/03/23 03:01:35;;;;;;;;;;;;;;;20.68;48.62;101756.50;2094741;28;1112;-38
2021/03/23 03:02:36;;;;;;;;;;;;;;;20.68;48.68;101762.19;2090610;28;1617;-32
2021/03/23 03:03:37;;;;;;;;;;;;;;;20.68;48.67;101759.34;2090237;28;2160;-33
2021/03/23 03:04:39;;;;;;;;;;;;;;;20.68;48.64;101763.03;2095394;28;1628;-35
2021/03/23 03:05:40;;;;;;;;;;;;;;;20.67;48.70;101761.31;2090782;28;1705;-38
2021/03/23 03:06:40;;;;;;;;;;;;;;;20.69;48.74;101769.53;2099088;28;1118;-35
2021/03/23 03:07:41;;;;;;;;;;;;;;;20.68;48.70;101768.72;2098897;28;1738;-37
2021/03/23 03:08:42;;;;;;;;;;;;;;;20.68;48.57;101771.53;2092260;28;2115;-33
2021/03/23 03:09:43;;;;;;;;;;;;;;;20.68;48.62;101771.53;2091974;28;3768;-35
2021/03/23 03:10:43;;;;;;;;;;;;;;;20.68;48.71;101763.03;2094608;28;1752;-34
2021/03/23 03:11:44;;;;;;;;;;;;;;;20.68;48.64;101762.19;2098334;28;1276;-36
2021/03/23 03:12:45;;;;;;;;;;;;;;;20.68;48.69;101763.03;2091322;28;1521;-34
2021/03/23 03:13:45;;;;;;;;;;;;;;;20.67;48.70;101763.34;2094707;28;2199;-34
2021/03/23 03:14:46;;;;;;;;;;;;;;;20.68;48.61;101756.50;2098464;28;1213;-37
2021/03/23 03:15:47;;;;;;;;;;;;;;;20.68;48.86;101767.88;2093247;28;1527;-34
2021/03/23 03:16:48;;;;;;;;;;;;;;;20.68;48.81;101767.88;2097640;28;1721;-34
2021/03/23 03:17:49;;;;;;;;;;;;;;;20.68;48.72;101770.72;2091681;28;2187;-37
2021/03/23 03:18:49;;;;;;;;;;;;;;;20.67;48.65;101767.00;2095719;28;2063;-34
2021/03/23 03:19:50;;;;;;;;;;;;;;;20.67;48.75;101772.69;2098463;28;1294;-37
2021/03/23 03:20:51;;;;;;;;;;;;;;;20.67;48.78;101763.34;2093414;28;1713;-35
2021/03/23 03:21:52;;;;;;;;;;;;;;;20.67;48.79;101769.84;2098122;28;1538;-36
2021/03/23 03:22:53;;;;;;;;;;;;;;;20.66;48.71;101771.03;2096944;28;2149;-35
2021/03/23 03:23:54;;;;;;;;;;;;;;;20.68;48.66;101767.88;2094113;28;1801;-34
2021/03/23 03:24:54;;;;;;;;;;;;;;;20.66;48.80;101771.03;2098258;28;1094;-37
2021/03/23 03:25:55;;;;;;;;;;;;;;;20.67;48.79;101771.88;2097193;28;1448;-34
2021/03/23 03:26:56;;;;;;;;;;;;;;;20.67;48.79;101778.38;2096592;28;1341;-35
2021/03/23 03:27:57;;;;;;;;;;;;;;;20.67;48.73;101775.53;2091203;28;2093;-34
2021/03/23 03:28:57;;;;;;;;;;;;;;;20.67;48.75;101780.41;2092230;28;2148;-34
2021/03/23 03:29:58;;;;;;;;;;;;;;;20.66;48.71;101771.03;2097239;28;1233;-35
2021/03/23 03:30:59;;;;;;;;;;;;;;;20.66;48.74;101776.72;2096452;28;1216;-36
2021/03/23 03:31:59;;;;;;;;;;;;;;;20.67;48.76;101777.56;2097756;28;1321;-35
2021/03/23 03:33:01;;;;;;;;;;;;;;;20.67;48.64;101778.38;2097587;28;2196;-36
2021/03/23 03:34:01;;;;;;;;;;;;;;;20.67;48.65;101783.25;2097036;28;1556;-34
2021/03/23 03:35:03;;;;;;;;;;;;;;;20.66;48.64;101779.56;2096001;28;1285;-38
2021/03/23 03:36:03;;;;;;;;;;;;;;;20.66;48.74;101782.41;2094899;28;2165;-37
2021/03/23 03:37:04;;;;;;;;;;;;;;;20.66;48.65;101782.41;2097078;28;3753;-35
2021/03/23 03:38:05;;;;;;;;;;;;;;;20.66;48.78;101782.41;2093400;28;1133;-37
2021/03/23 03:39:06;;;;;;;;;;;;;;;20.66;48.67;101784.41;2096175;28;1988;-35
2021/03/23 03:40:06;;;;;;;;;;;;;;;20.67;48.68;101783.25;2097813;28;1239;-34
2021/03/23 03:41:07;;;;;;;;;;;;;;;20.66;48.73;101781.56;2095207;28;1308;-34
2021/03/23 03:42:08;;;;;;;;;;;;;;;20.65;48.63;101786.44;2097497;28;1309;-32
2021/03/23 03:43:09;;;;;;;;;;;;;;;20.67;48.49;101783.25;2091302;28;2168;-36
2021/03/23 03:44:09;;;;;;;;;;;;;;;20.65;48.57;101785.59;2095565;28;1376;-36
2021/03/23 03:45:10;;;;;;;;;;;;;;;20.66;48.68;101790.09;2097382;28;1651;-37
2021/03/23 03:46:11;;;;;;;;;;;;;;;20.66;48.62;101790.09;2096985;28;1355;-34
2021/03/23 03:47:12;;;;;;;;;;;;;;;20.66;48.50;101792.94;2098022;28;1468;-41
2021/03/23 03:48:13;;;;;;;;;;;;;;;20.65;48.49;101791.28;2093742;28;2031;-37
2021/03/23 03:49:14;;;;;;;;;;;;;;;20.65;48.54;101792.13;2093421;28;1899;-36
2021/03/23 03:50:15;;;;;;;;;;;;;;;20.65;48.68;101789.28;2096658;28;2198;-36
2021/03/23 03:51:16;;;;;;;;;;;;;;;20.65;48.58;101800.66;2098467;28;1622;-34
2021/03/23 03:52:17;;;;;;;;;;;;;;;20.66;48.56;101798.63;2096180;28;1400;-36
2021/03/23 03:53:18;;;;;;;;;;;;;;;20.65;48.51;101794.97;2095923;28;2137;-34
2021/03/23 03:54:19;;;;;;;;;;;;;;;20.65;48.55;101802.66;2091102;28;1425;-36
2021/03/23 03:55:20;;;;;;;;;;;;;;;20.65;48.49;101796.97;2093532;28;1594;-34
2021/03/23 03:56:20;;;;;;;;;;;;;;;20.65;48.63;101792.13;2093993;28;2272;-34
2021/03/23 03:57:21;;;;;;;;;;;;;;;20.66;48.58;101798.63;2096499;28;1096;-35
2021/03/23 03:58:22;;;;;;;;;;;;;;;20.65;48.47;101785.59;2092905;28;2144;-35
2021/03/23 03:59:23;;;;;;;;;;;;;;;20.65;48.47;101794.97;2095978;28;1335;-34
2021/03/23 04:00:23;;;;;;;;;;;;;;;20.64;48.48;101796.09;2090821;28;2088;-37
2021/03/23 04:01:24;;;;;;;;;;;;;;;20.65;48.57;101792.13;2094225;28;1226;-36
2021/03/23 04:02:26;;;;;;;;;;;;;;;20.65;48.50;101797.81;2091104;28;2198;-34
2021/03/23 04:03:27;;;;;;;;;;;;;;;20.65;48.57;101789.28;2097210;28;1714;-33
2021/03/23 04:04:28;;;;;;;;;;;;;;;20.64;48.34;101793.25;2095439;28;2087;-35
2021/03/23 04:05:29;;;;;;;;;;;;;;;20.64;48.48;101796.09;2093876;28;2117;-35
2021/03/23 04:06:30;;;;;;;;;;;;;;;20.65;48.35;101794.13;2097800;28;1810;-36
2021/03/23 04:07:30;;;;;;;;;;;;;;;20.64;48.49;101792.44;2097393;28;1463;-34
2021/03/23 04:08:31;;;;;;;;;;;;;;;20.64;48.43;101793.25;2096200;28;1131;-33
2021/03/23 04:09:32;;;;;;;;;;;;;;;20.65;48.55;101791.28;2093364;28;3793;-32
2021/03/23 04:10:33;;;;;;;;;;;;;;;20.65;48.52;101788.44;2093604;28;2227;-34
2021/03/23 04:11:33;;;;;;;;;;;;;;;20.64;48.42;101796.09;2096426;28;2153;-35
2021/03/23 04:12:34;;;;;;;;;;;;;;;20.65;48.49;101791.28;2094828;28;1257;-34
2021/03/23 04:13:35;;;;;;;;;;;;;;;20.66;48.65;101792.94;2095370;28;1173;-34
2021/03/23 04:14:36;;;;;;;;;;;;;;;20.64;48.46;101787.56;2093648;28;2287;-34
2021/03/23 04:15:36;;;;;;;;;;;;;;;20.65;48.63;101791.28;2094039;28;1366;-32
2021/03/23 04:16:37;;;;;;;;;;;;;;;20.65;48.47;101797.81;2095549;28;1176;-35
2021/03/23 04:17:38;;;;;;;;;;;;;;;20.65;48.44;101797.81;2093435;28;1319;-34
2021/03/23 04:18:39;;;;;;;;;;;;;;;20.65;48.42;101796.97;2095578;28;1218;-34
2021/03/23 04:19:40;;;;;;;;;;;;;;;20.64;48.45;101801.78;2095284;28;2182;-34
2021/03/23 04:20:41;;;;;;;;;;;;;;;20.65;48.58;101796.97;2097628;28;1191;-32
2021/03/23 04:21:41;;;;;;;;;;;;;;;20.64;48.52;101800.97;2099558;28;1234;-37
2021/03/23 04:22:42;;;;;;;;;;;;;;;20.65;48.54;101802.66;2093682;28;1577;-35
2021/03/23 04:23:43;;;;;;;;;;;;;;;20.65;48.65;101808.34;2098787;28;1142;-37
2021/03/23 04:24:44;;;;;;;;;;;;;;;20.64;48.59;101796.09;2093767;28;2084;-34
2021/03/23 04:25:44;;;;;;;;;;;;;;;20.64;48.52;101796.09;2093976;28;1349;-35
2021/03/23 04:26:45;;;;;;;;;;;;;;;20.65;48.58;101796.97;2099176;28;1172;-33
2021/03/23 04:27:46;;;;;;;;;;;;;;;20.64;48.58;101801.78;2098889;28;1574;-35
2021/03/23 04:28:47;;;;;;;;;;;;;;;20.65;48.66;101799.81;2099404;28;1189;-36
2021/03/23 04:29:48;;;;;;;;;;;;;;;20.64;48.59;101795.28;2097498;28;2019;-34
2021/03/23 04:30:49;;;;;;;;;;;;;;;20.63;48.62;101796.44;2096163;28;1130;-36
2021/03/23 04:31:50;;;;;;;;;;;;;;;20.63;48.59;101793.59;2096321;28;1142;-35
2021/03/23 04:32:52;;;;;;;;;;;;;;;20.63;48.54;101793.59;2099626;28;1796;-36
2021/03/23 04:33:53;;;;;;;;;;;;;;;20.63;48.56;101800.13;2097327;28;1394;-36
2021/03/23 04:34:53;;;;;;;;;;;;;;;20.63;48.62;101796.44;2092605;28;2136;-36
2021/03/23 04:35:54;;;;;;;;;;;;;;;20.63;48.66;101799.28;2096144;28;1724;-34
2021/03/23 04:36:55;;;;;;;;;;;;;;;20.63;48.56;101793.59;2098424;28;3980;-35
2021/03/23 04:37:56;;;;;;;;;;;;;;;20.63;48.49;101797.28;2094060;28;1267;-33
2021/03/23 04:38:57;;;;;;;;;;;;;;;20.63;48.60;101799.28;2096858;28;1071;-32
2021/03/23 04:39:57;;;;;;;;;;;;;;;20.63;48.67;101796.44;2093820;28;2174;-33
2021/03/23 04:40:58;;;;;;;;;;;;;;;20.62;48.63;101804.16;2099227;28;1373;-35
2021/03/23 04:41:59;;;;;;;;;;;;;;;20.63;48.61;101804.97;2099277;28;1319;-34
2021/03/23 04:43:00;;;;;;;;;;;;;;;20.64;48.59;101803.81;2097984;28;1179;-33
2021/03/23 04:44:01;;;;;;;;;;;;;;;20.62;48.56;101798.47;2099937;28;1203;-33
2021/03/23 04:45:01;;;;;;;;;;;;;;;20.64;48.47;101800.97;2095534;28;2089;-38
2021/03/23 04:46:02;;;;;;;;;;;;;;;20.63;48.52;101802.13;2097696;28;1644;-36
2021/03/23 04:47:03;;;;;;;;;;;;;;;20.63;48.50;101810.66;2100369;28;1316;-35
2021/03/23 04:48:04;;;;;;;;;;;;;;;20.63;48.63;101802.97;2094521;28;2506;-37
2021/03/23 04:49:05;;;;;;;;;;;;;;;20.63;48.56;101804.97;2095115;28;1184;-36
2021/03/23 04:50:06;;;;;;;;;;;;;;;20.63;48.51;101802.13;2093957;28;2025;-37
2021/03/23 04:51:06;;;;;;;;;;;;;;;20.64;48.59;101804.63;2097315;28;1114;-33
2021/03/23 04:52:07;;;;;;;;;;;;;;;20.63;48.48;101810.66;2099958;28;1114;-31
2021/03/23 04:53:08;;;;;;;;;;;;;;;20.63;48.55;101811.50;2092869;28;2112;-35
2021/03/23 04:54:10;;;;;;;;;;;;;;;20.63;48.55;101804.97;2097951;28;2438;-34
2021/03/23 04:55:11;;;;;;;;;;;;;;;20.63;48.54;101804.97;2099538;28;1014;-36
2021/03/23 04:56:12;;;;;;;;;;;;;;;20.63;48.46;101810.66;2095931;28;1819;-37
2021/03/23 04:57:12;;;;;;;;;;;;;;;20.63;48.63;101813.50;2096018;28;2190;-36
2021/03/23 04:58:13;;;;;;;;;;;;;;;20.63;48.62;101811.50;2093579;28;1173;-36
2021/03/23 04:59:14;;;;;;;;;;;;;;;20.64;48.61;101815.16;2096658;28;1681;-33
2021/03/23 05:00:15;;;;;;;;;;;;;;;20.63;48.51;101814.34;2099520;28;1180;-37
2021/03/23 05:01:16;;;;;;;;;;;;;;;20.63;48.67;101816.34;2099112;28;1165;-34
2021/03/23 05:02:17;;;;;;;;;;;;;;;20.64;48.61;101820.84;2097495;28;2151;-33
2021/03/23 05:03:18;;;;;;;;;;;;;;;20.63;48.72;101813.50;2099718;28;1116;-35
2021/03/23 05:04:19;;;;;;;;;;;;;;;20.63;48.70;101816.34;2093834;28;2266;-34
2021/03/23 05:05:25;;;;;;;;;;;;;;;20.64;48.62;101812.31;2099192;28;1697;-38
2021/03/23 05:06:25;;;;;;;;;;;;;;;20.64;48.75;101815.16;2099308;28;1547;-37
2021/03/23 05:07:26;;;;;;;;;;;;;;;20.63;48.79;101805.81;2093168;28;2113;-35
2021/03/23 05:08:27;;;;;;;;;;;;;;;20.63;48.76;101810.66;2098755;28;1205;-33
2021/03/23 05:09:28;;;;;;;;;;;;;;;20.63;48.77;101814.34;2094715;28;3635;-36
2021/03/23 05:10:28;;;;;;;;;;;;;;;20.63;48.78;101813.50;2097845;28;1585;-37
2021/03/23 05:11:29;;;;;;;;;;;;;;;20.63;48.77;101810.66;2099752;28;1496;-36
2021/03/23 05:12:30;;;;;;;;;;;;;;;20.63;48.69;101811.50;2095467;28;2199;-33
2021/03/23 05:13:31;;;;;;;;;;;;;;;20.62;48.76;101809.84;2094872;28;1683;-34
2021/03/23 05:14:32;;;;;;;;;;;;;;;20.62;48.76;101807.00;2095829;28;2336;-35
2021/03/23 05:15:33;;;;;;;;;;;;;;;20.62;48.71;101815.53;2094002;28;2146;-31
2021/03/23 05:16:34;;;;;;;;;;;;;;;20.62;48.76;101814.66;2098779;28;1241;-36
2021/03/23 05:17:35;;;;;;;;;;;;;;;20.63;48.69;101816.34;2092522;28;2152;-35